Selfridge Air Natl Guard, Michigan
Current Conditions -  °F | °C
As of 2:18 AM on Wednesday 22 Oct 2014 (Local Time) from KMTC Reporting Station
Overcast Overcast  
Wind Chill: 41°   Ceiling: 1900
Heat Index: 46°   Visibility: 10mi
Dew Point: 41°   Wind: 12mph
Humidity: 81%   Direction: 10°N
Pressure: 30.18"   Gusts: NA
Location:  42.5826°N, 82.8345°W
Report Text: KMTC 220618Z AUTO 01010KT 10SM OVC019 08/05 A3018 RMK AO2 $
Loading
Personal Weather Stations






























Interactive Weather Map
Tropical Storm Tracking
New forecast layout! Learn more

10-Day Weather Forecast

Advertisements
Track Severe Weather on mobile